sensor_id;sensor_type;location;lat;lon;timestamp;P1;durP1;ratioP1;P2;durP2;ratioP2
20367;SDS011;10343;52.402;9.796;2023-04-16T00:01:26;14.27;;;2.63;;
20367;SDS011;10343;52.402;9.796;2023-04-16T00:03:54;17.05;;;2.70;;
20367;SDS011;10343;52.402;9.796;2023-04-16T00:06:22;11.60;;;1.92;;
20367;SDS011;10343;52.402;9.796;2023-04-16T00:08:50;11.00;;;1.70;;
20367;SDS011;10343;52.402;9.796;2023-04-16T00:11:23;10.95;;;1.92;;
20367;SDS011;10343;52.402;9.796;2023-04-16T00:13:51;10.40;;;2.75;;
20367;SDS011;10343;52.402;9.796;2023-04-16T00:16:20;11.57;;;2.22;;
20367;SDS011;10343;52.402;9.796;2023-04-16T00:18:48;14.82;;;2.35;;
20367;SDS011;10343;52.402;9.796;2023-04-16T00:21:16;15.02;;;3.50;;
20367;SDS011;10343;52.402;9.796;2023-04-16T00:23:44;17.42;;;4.35;;
20367;SDS011;10343;52.402;9.796;2023-04-16T00:26:12;11.85;;;2.40;;
20367;SDS011;10343;52.402;9.796;2023-04-16T00:28:43;12.90;;;4.13;;
20367;SDS011;10343;52.402;9.796;2023-04-16T00:31:12;13.40;;;2.50;;
20367;SDS011;10343;52.402;9.796;2023-04-16T00:33:40;15.27;;;3.17;;
20367;SDS011;10343;52.402;9.796;2023-04-16T00:36:08;12.25;;;3.30;;
20367;SDS011;10343;52.402;9.796;2023-04-16T00:38:36;13.38;;;2.78;;
20367;SDS011;10343;52.402;9.796;2023-04-16T00:41:04;17.20;;;4.28;;
20367;SDS011;10343;52.402;9.796;2023-04-16T00:43:32;18.98;;;4.53;;
20367;SDS011;10343;52.402;9.796;2023-04-16T00:46:01;14.05;;;2.97;;
20367;SDS011;10343;52.402;9.796;2023-04-16T00:48:31;20.27;;;3.75;;
20367;SDS011;10343;52.402;9.796;2023-04-16T00:51:00;16.73;;;2.08;;
20367;SDS011;10343;52.402;9.796;2023-04-16T00:53:31;21.58;;;3.90;;
20367;SDS011;10343;52.402;9.796;2023-04-16T00:55:59;17.65;;;3.70;;
20367;SDS011;10343;52.402;9.796;2023-04-16T00:58:29;18.95;;;3.85;;
20367;SDS011;10343;52.402;9.796;2023-04-16T01:00:58;15.93;;;3.55;;
20367;SDS011;10343;52.402;9.796;2023-04-16T01:03:29;19.08;;;3.75;;
20367;SDS011;10343;52.402;9.796;2023-04-16T01:06:04;16.50;;;3.70;;
20367;SDS011;10343;52.402;9.796;2023-04-16T01:08:32;14.95;;;3.33;;
20367;SDS011;10343;52.402;9.796;2023-04-16T01:11:01;18.67;;;3.40;;
20367;SDS011;10343;52.402;9.796;2023-04-16T01:13:29;15.80;;;4.47;;
20367;SDS011;10343;52.402;9.796;2023-04-16T01:15:57;16.80;;;4.38;;
20367;SDS011;10343;52.402;9.796;2023-04-16T01:18:25;19.50;;;4.53;;
20367;SDS011;10343;52.402;9.796;2023-04-16T01:20:54;19.95;;;4.30;;
20367;SDS011;10343;52.402;9.796;2023-04-16T01:23:23;14.65;;;2.28;;
20367;SDS011;10343;52.402;9.796;2023-04-16T01:25:51;15.63;;;2.63;;
20367;SDS011;10343;52.402;9.796;2023-04-16T01:28:19;18.38;;;5.07;;
20367;SDS011;10343;52.402;9.796;2023-04-16T01:30:47;16.35;;;3.83;;
20367;SDS011;10343;52.402;9.796;2023-04-16T01:33:51;17.33;;;3.35;;
20367;SDS011;10343;52.402;9.796;2023-04-16T01:36:20;15.50;;;2.42;;
20367;SDS011;10343;52.402;9.796;2023-04-16T01:38:50;15.30;;;3.13;;
20367;SDS011;10343;52.402;9.796;2023-04-16T01:41:18;20.52;;;4.20;;
20367;SDS011;10343;52.402;9.796;2023-04-16T01:43:46;20.67;;;4.57;;
20367;SDS011;10343;52.402;9.796;2023-04-16T01:46:17;17.60;;;2.92;;
20367;SDS011;10343;52.402;9.796;2023-04-16T01:48:47;18.38;;;4.05;;
20367;SDS011;10343;52.402;9.796;2023-04-16T01:51:17;14.13;;;3.17;;
20367;SDS011;10343;52.402;9.796;2023-04-16T01:53:48;22.20;;;4.88;;
20367;SDS011;10343;52.402;9.796;2023-04-16T01:56:17;14.00;;;3.78;;
20367;SDS011;10343;52.402;9.796;2023-04-16T01:58:45;29.73;;;4.95;;
20367;SDS011;10343;52.402;9.796;2023-04-16T02:01:15;18.00;;;4.18;;
20367;SDS011;10343;52.402;9.796;2023-04-16T02:03:44;23.67;;;4.32;;
20367;SDS011;10343;52.402;9.796;2023-04-16T02:06:14;19.27;;;4.28;;
20367;SDS011;10343;52.402;9.796;2023-04-16T02:08:42;16.30;;;3.22;;
20367;SDS011;10343;52.402;9.796;2023-04-16T02:11:14;16.67;;;4.43;;
20367;SDS011;10343;52.402;9.796;2023-04-16T02:13:42;17.48;;;4.05;;
20367;SDS011;10343;52.402;9.796;2023-04-16T02:16:11;31.38;;;5.60;;
20367;SDS011;10343;52.402;9.796;2023-04-16T02:18:45;17.20;;;3.85;;
20367;SDS011;10343;52.402;9.796;2023-04-16T02:21:15;19.13;;;4.13;;
20367;SDS011;10343;52.402;9.796;2023-04-16T02:23:43;15.90;;;3.88;;
20367;SDS011;10343;52.402;9.796;2023-04-16T02:26:15;18.33;;;3.92;;
20367;SDS011;10343;52.402;9.796;2023-04-16T02:28:44;17.63;;;4.05;;
20367;SDS011;10343;52.402;9.796;2023-04-16T02:31:13;22.38;;;5.72;;
20367;SDS011;10343;52.402;9.796;2023-04-16T02:33:46;18.35;;;3.92;;
20367;SDS011;10343;52.402;9.796;2023-04-16T02:36:14;23.60;;;3.70;;
20367;SDS011;10343;52.402;9.796;2023-04-16T02:38:42;19.40;;;3.83;;
20367;SDS011;10343;52.402;9.796;2023-04-16T02:41:10;18.70;;;3.95;;
20367;SDS011;10343;52.402;9.796;2023-04-16T02:43:39;19.30;;;4.18;;
20367;SDS011;10343;52.402;9.796;2023-04-16T02:46:07;18.08;;;4.32;;
20367;SDS011;10343;52.402;9.796;2023-04-16T02:48:36;20.13;;;4.53;;
20367;SDS011;10343;52.402;9.796;2023-04-16T02:51:04;19.20;;;4.82;;
20367;SDS011;10343;52.402;9.796;2023-04-16T02:53:32;16.20;;;3.50;;
20367;SDS011;10343;52.402;9.796;2023-04-16T02:56:01;23.88;;;4.93;;
20367;SDS011;10343;52.402;9.796;2023-04-16T02:58:29;20.83;;;4.25;;
20367;SDS011;10343;52.402;9.796;2023-04-16T03:00:58;15.75;;;3.97;;
20367;SDS011;10343;52.402;9.796;2023-04-16T03:03:27;16.52;;;3.60;;
20367;SDS011;10343;52.402;9.796;2023-04-16T03:05:55;15.50;;;4.05;;
20367;SDS011;10343;52.402;9.796;2023-04-16T03:08:23;18.15;;;3.80;;
20367;SDS011;10343;52.402;9.796;2023-04-16T03:10:52;20.48;;;4.38;;
20367;SDS011;10343;52.402;9.796;2023-04-16T03:13:20;19.17;;;4.53;;
20367;SDS011;10343;52.402;9.796;2023-04-16T03:15:49;18.13;;;2.60;;
20367;SDS011;10343;52.402;9.796;2023-04-16T03:18:18;21.10;;;4.25;;
20367;SDS011;10343;52.402;9.796;2023-04-16T03:20:50;20.27;;;4.05;;
20367;SDS011;10343;52.402;9.796;2023-04-16T03:23:18;21.23;;;6.00;;
20367;SDS011;10343;52.402;9.796;2023-04-16T03:25:46;19.33;;;4.20;;
20367;SDS011;10343;52.402;9.796;2023-04-16T03:28:16;22.50;;;5.50;;
20367;SDS011;10343;52.402;9.796;2023-04-16T03:30:48;16.90;;;4.65;;
20367;SDS011;10343;52.402;9.796;2023-04-16T03:33:19;24.35;;;5.68;;
20367;SDS011;10343;52.402;9.796;2023-04-16T03:35:55;17.63;;;3.67;;
20367;SDS011;10343;52.402;9.796;2023-04-16T03:38:26;30.30;;;6.65;;
20367;SDS011;10343;52.402;9.796;2023-04-16T03:40:57;18.00;;;4.60;;
20367;SDS011;10343;52.402;9.796;2023-04-16T03:43:25;16.42;;;3.42;;
20367;SDS011;10343;52.402;9.796;2023-04-16T03:45:53;17.02;;;4.55;;
20367;SDS011;10343;52.402;9.796;2023-04-16T03:48:24;17.90;;;3.92;;
20367;SDS011;10343;52.402;9.796;2023-04-16T03:50:52;18.27;;;4.50;;
20367;SDS011;10343;52.402;9.796;2023-04-16T03:53:21;15.63;;;4.40;;
20367;SDS011;10343;52.402;9.796;2023-04-16T03:55:49;17.80;;;3.97;;
20367;SDS011;10343;52.402;9.796;2023-04-16T03:58:18;20.75;;;4.57;;
20367;SDS011;10343;52.402;9.796;2023-04-16T04:00:46;25.92;;;5.13;;
20367;SDS011;10343;52.402;9.796;2023-04-16T04:03:16;20.85;;;4.97;;
20367;SDS011;10343;52.402;9.796;2023-04-16T04:05:48;20.75;;;4.10;;
20367;SDS011;10343;52.402;9.796;2023-04-16T04:08:26;13.93;;;3.63;;
20367;SDS011;10343;52.402;9.796;2023-04-16T04:10:54;19.95;;;5.18;;
20367;SDS011;10343;52.402;9.796;2023-04-16T04:13:23;20.90;;;5.70;;
20367;SDS011;10343;52.402;9.796;2023-04-16T04:15:52;19.60;;;4.47;;
20367;SDS011;10343;52.402;9.796;2023-04-16T04:18:21;16.83;;;4.13;;
20367;SDS011;10343;52.402;9.796;2023-04-16T04:20:50;25.80;;;5.25;;
20367;SDS011;10343;52.402;9.796;2023-04-16T04:23:22;16.23;;;4.18;;
20367;SDS011;10343;52.402;9.796;2023-04-16T04:25:50;17.20;;;3.25;;
20367;SDS011;10343;52.402;9.796;2023-04-16T04:28:19;19.05;;;4.95;;
20367;SDS011;10343;52.402;9.796;2023-04-16T04:30:47;16.35;;;3.13;;
20367;SDS011;10343;52.402;9.796;2023-04-16T04:33:15;21.67;;;4.80;;
20367;SDS011;10343;52.402;9.796;2023-04-16T04:35:43;18.98;;;4.03;;
20367;SDS011;10343;52.402;9.796;2023-04-16T04:38:12;20.65;;;3.47;;
20367;SDS011;10343;52.402;9.796;2023-04-16T04:40:41;22.23;;;4.78;;
20367;SDS011;10343;52.402;9.796;2023-04-16T04:43:09;20.30;;;5.55;;
20367;SDS011;10343;52.402;9.796;2023-04-16T04:45:37;24.60;;;4.78;;
20367;SDS011;10343;52.402;9.796;2023-04-16T04:48:05;24.40;;;5.32;;
20367;SDS011;10343;52.402;9.796;2023-04-16T04:50:33;16.38;;;3.47;;
20367;SDS011;10343;52.402;9.796;2023-04-16T04:53:02;20.42;;;3.22;;
20367;SDS011;10343;52.402;9.796;2023-04-16T04:55:37;15.70;;;2.70;;
20367;SDS011;10343;52.402;9.796;2023-04-16T04:58:06;14.38;;;3.42;;
20367;SDS011;10343;52.402;9.796;2023-04-16T05:00:35;16.55;;;2.63;;
20367;SDS011;10343;52.402;9.796;2023-04-16T05:03:04;20.85;;;3.45;;
20367;SDS011;10343;52.402;9.796;2023-04-16T05:05:36;20.10;;;4.13;;
20367;SDS011;10343;52.402;9.796;2023-04-16T05:08:04;11.68;;;2.88;;
20367;SDS011;10343;52.402;9.796;2023-04-16T05:10:32;16.90;;;2.88;;
20367;SDS011;10343;52.402;9.796;2023-04-16T05:13:01;17.40;;;3.42;;
20367;SDS011;10343;52.402;9.796;2023-04-16T05:15:29;16.75;;;2.65;;
20367;SDS011;10343;52.402;9.796;2023-04-16T05:17:57;17.58;;;2.95;;
20367;SDS011;10343;52.402;9.796;2023-04-16T05:20:25;14.85;;;2.53;;
20367;SDS011;10343;52.402;9.796;2023-04-16T05:22:53;15.23;;;2.67;;
20367;SDS011;10343;52.402;9.796;2023-04-16T05:25:21;17.40;;;3.22;;
20367;SDS011;10343;52.402;9.796;2023-04-16T05:27:49;14.32;;;2.13;;
20367;SDS011;10343;52.402;9.796;2023-04-16T05:30:19;17.67;;;3.28;;
20367;SDS011;10343;52.402;9.796;2023-04-16T05:32:49;16.88;;;3.05;;
20367;SDS011;10343;52.402;9.796;2023-04-16T05:35:17;17.73;;;3.90;;
20367;SDS011;10343;52.402;9.796;2023-04-16T05:37:45;13.55;;;2.33;;
20367;SDS011;10343;52.402;9.796;2023-04-16T05:40:13;12.98;;;2.58;;
20367;SDS011;10343;52.402;9.796;2023-04-16T05:42:41;15.48;;;1.88;;
20367;SDS011;10343;52.402;9.796;2023-04-16T05:45:09;15.73;;;2.63;;
20367;SDS011;10343;52.402;9.796;2023-04-16T05:47:38;19.27;;;2.20;;
20367;SDS011;10343;52.402;9.796;2023-04-16T05:50:07;15.88;;;3.22;;
20367;SDS011;10343;52.402;9.796;2023-04-16T05:52:35;15.45;;;1.17;;
20367;SDS011;10343;52.402;9.796;2023-04-16T05:55:03;11.73;;;2.60;;
20367;SDS011;10343;52.402;9.796;2023-04-16T05:57:32;15.75;;;2.40;;
20367;SDS011;10343;52.402;9.796;2023-04-16T06:00:06;19.55;;;3.35;;
20367;SDS011;10343;52.402;9.796;2023-04-16T06:02:39;14.57;;;2.63;;
20367;SDS011;10343;52.402;9.796;2023-04-16T06:05:08;16.38;;;2.45;;
20367;SDS011;10343;52.402;9.796;2023-04-16T06:07:36;12.75;;;1.35;;
20367;SDS011;10343;52.402;9.796;2023-04-16T06:10:04;14.65;;;2.90;;
20367;SDS011;10343;52.402;9.796;2023-04-16T06:12:33;19.42;;;2.58;;
20367;SDS011;10343;52.402;9.796;2023-04-16T06:15:01;14.43;;;2.05;;
20367;SDS011;10343;52.402;9.796;2023-04-16T06:17:29;15.07;;;2.38;;
20367;SDS011;10343;52.402;9.796;2023-04-16T06:19:58;18.83;;;3.08;;
20367;SDS011;10343;52.402;9.796;2023-04-16T06:22:26;18.52;;;2.65;;
20367;SDS011;10343;52.402;9.796;2023-04-16T06:24:55;13.52;;;1.30;;
20367;SDS011;10343;52.402;9.796;2023-04-16T06:27:23;13.20;;;1.35;;
20367;SDS011;10343;52.402;9.796;2023-04-16T06:29:51;12.23;;;2.63;;
20367;SDS011;10343;52.402;9.796;2023-04-16T06:32:19;17.70;;;2.58;;
20367;SDS011;10343;52.402;9.796;2023-04-16T06:34:47;16.20;;;2.65;;
20367;SDS011;10343;52.402;9.796;2023-04-16T06:37:16;12.32;;;1.90;;
20367;SDS011;10343;52.402;9.796;2023-04-16T06:39:44;11.13;;;1.23;;
20367;SDS011;10343;52.402;9.796;2023-04-16T06:42:12;16.08;;;1.73;;
20367;SDS011;10343;52.402;9.796;2023-04-16T06:44:39;20.20;;;2.05;;
20367;SDS011;10343;52.402;9.796;2023-04-16T06:47:09;15.05;;;2.30;;
20367;SDS011;10343;52.402;9.796;2023-04-16T06:49:37;10.20;;;1.67;;
20367;SDS011;10343;52.402;9.796;2023-04-16T06:52:05;11.32;;;1.70;;
20367;SDS011;10343;52.402;9.796;2023-04-16T06:54:35;11.80;;;1.55;;
20367;SDS011;10343;52.402;9.796;2023-04-16T06:57:03;11.80;;;1.52;;
20367;SDS011;10343;52.402;9.796;2023-04-16T06:59:34;17.92;;;2.08;;
20367;SDS011;10343;52.402;9.796;2023-04-16T07:02:01;7.80;;;0.85;;
20367;SDS011;10343;52.402;9.796;2023-04-16T07:04:29;14.82;;;2.53;;
20367;SDS011;10343;52.402;9.796;2023-04-16T07:06:57;10.60;;;1.23;;
20367;SDS011;10343;52.402;9.796;2023-04-16T07:09:25;17.27;;;2.15;;
20367;SDS011;10343;52.402;9.796;2023-04-16T07:11:55;10.05;;;1.63;;
20367;SDS011;10343;52.402;9.796;2023-04-16T07:14:22;13.05;;;1.77;;
20367;SDS011;10343;52.402;9.796;2023-04-16T07:16:50;10.32;;;1.13;;
20367;SDS011;10343;52.402;9.796;2023-04-16T07:19:19;15.10;;;0.98;;
20367;SDS011;10343;52.402;9.796;2023-04-16T07:21:47;9.00;;;1.05;;
20367;SDS011;10343;52.402;9.796;2023-04-16T07:24:20;10.73;;;1.52;;
20367;SDS011;10343;52.402;9.796;2023-04-16T07:26:48;12.77;;;1.33;;
20367;SDS011;10343;52.402;9.796;2023-04-16T07:29:20;18.02;;;2.85;;
20367;SDS011;10343;52.402;9.796;2023-04-16T07:31:48;9.77;;;0.52;;
20367;SDS011;10343;52.402;9.796;2023-04-16T07:34:17;15.18;;;1.58;;
20367;SDS011;10343;52.402;9.796;2023-04-16T07:36:45;18.75;;;1.13;;
20367;SDS011;10343;52.402;9.796;2023-04-16T07:39:13;12.85;;;1.02;;
20367;SDS011;10343;52.402;9.796;2023-04-16T07:41:40;20.08;;;1.42;;
20367;SDS011;10343;52.402;9.796;2023-04-16T07:44:13;11.88;;;2.33;;
20367;SDS011;10343;52.402;9.796;2023-04-16T07:46:44;10.43;;;2.20;;
20367;SDS011;10343;52.402;9.796;2023-04-16T07:49:15;12.85;;;0.77;;
20367;SDS011;10343;52.402;9.796;2023-04-16T07:51:46;9.90;;;1.48;;
20367;SDS011;10343;52.402;9.796;2023-04-16T07:54:14;10.25;;;1.35;;
20367;SDS011;10343;52.402;9.796;2023-04-16T07:56:44;9.77;;;1.08;;
20367;SDS011;10343;52.402;9.796;2023-04-16T07:59:12;13.15;;;1.45;;
20367;SDS011;10343;52.402;9.796;2023-04-16T08:01:51;9.20;;;1.50;;
20367;SDS011;10343;52.402;9.796;2023-04-16T08:04:22;11.68;;;1.48;;
20367;SDS011;10343;52.402;9.796;2023-04-16T08:06:52;10.25;;;1.45;;
20367;SDS011;10343;52.402;9.796;2023-04-16T08:09:25;11.13;;;1.45;;
20367;SDS011;10343;52.402;9.796;2023-04-16T08:12:02;14.05;;;1.52;;
20367;SDS011;10343;52.402;9.796;2023-04-16T08:14:30;8.70;;;1.33;;
20367;SDS011;10343;52.402;9.796;2023-04-16T08:16:59;9.07;;;1.67;;
20367;SDS011;10343;52.402;9.796;2023-04-16T08:19:27;10.57;;;1.02;;
20367;SDS011;10343;52.402;9.796;2023-04-16T08:21:55;15.05;;;1.45;;
20367;SDS011;10343;52.402;9.796;2023-04-16T08:24:27;12.75;;;1.75;;
20367;SDS011;10343;52.402;9.796;2023-04-16T08:26:55;12.52;;;1.25;;
20367;SDS011;10343;52.402;9.796;2023-04-16T08:29:43;12.77;;;1.40;;
20367;SDS011;10343;52.402;9.796;2023-04-16T08:32:12;13.25;;;1.38;;
20367;SDS011;10343;52.402;9.796;2023-04-16T08:34:43;10.65;;;1.60;;
20367;SDS011;10343;52.402;9.796;2023-04-16T08:37:11;13.60;;;0.90;;
20367;SDS011;10343;52.402;9.796;2023-04-16T08:39:39;10.73;;;0.98;;
20367;SDS011;10343;52.402;9.796;2023-04-16T08:42:11;17.92;;;1.73;;
20367;SDS011;10343;52.402;9.796;2023-04-16T08:44:48;7.72;;;0.57;;
20367;SDS011;10343;52.402;9.796;2023-04-16T08:47:21;7.88;;;1.33;;
20367;SDS011;10343;52.402;9.796;2023-04-16T08:49:55;25.63;;;1.65;;
20367;SDS011;10343;52.402;9.796;2023-04-16T08:52:25;7.78;;;1.30;;
20367;SDS011;10343;52.402;9.796;2023-04-16T08:55:07;6.85;;;0.73;;
20367;SDS011;10343;52.402;9.796;2023-04-16T08:57:43;12.05;;;1.60;;
20367;SDS011;10343;52.402;9.796;2023-04-16T09:00:17;13.43;;;1.67;;
20367;SDS011;10343;52.402;9.796;2023-04-16T09:02:47;9.43;;;0.57;;
20367;SDS011;10343;52.402;9.796;2023-04-16T09:05:17;11.10;;;1.65;;
20367;SDS011;10343;52.402;9.796;2023-04-16T09:07:48;9.15;;;0.73;;
20367;SDS011;10343;52.402;9.796;2023-04-16T09:10:17;11.60;;;1.08;;
20367;SDS011;10343;52.402;9.796;2023-04-16T09:12:46;14.50;;;0.95;;
20367;SDS011;10343;52.402;9.796;2023-04-16T09:15:19;9.15;;;1.17;;
20367;SDS011;10343;52.402;9.796;2023-04-16T09:18:02;12.80;;;1.85;;
20367;SDS011;10343;52.402;9.796;2023-04-16T09:20:33;10.57;;;1.13;;
20367;SDS011;10343;52.402;9.796;2023-04-16T09:23:03;15.27;;;1.55;;
20367;SDS011;10343;52.402;9.796;2023-04-16T09:25:32;12.95;;;2.05;;
20367;SDS011;10343;52.402;9.796;2023-04-16T09:28:01;10.35;;;1.35;;
20367;SDS011;10343;52.402;9.796;2023-04-16T09:30:29;11.48;;;1.73;;
20367;SDS011;10343;52.402;9.796;2023-04-16T09:33:12;12.90;;;1.48;;
20367;SDS011;10343;52.402;9.796;2023-04-16T09:35:46;8.38;;;0.93;;
20367;SDS011;10343;52.402;9.796;2023-04-16T09:38:15;7.88;;;0.63;;
20367;SDS011;10343;52.402;9.796;2023-04-16T09:40:44;15.95;;;2.25;;
20367;SDS011;10343;52.402;9.796;2023-04-16T09:43:13;15.68;;;2.45;;
20367;SDS011;10343;52.402;9.796;2023-04-16T09:45:48;11.25;;;1.65;;
20367;SDS011;10343;52.402;9.796;2023-04-16T09:48:28;17.05;;;2.92;;
20367;SDS011;10343;52.402;9.796;2023-04-16T09:50:57;16.95;;;1.60;;
20367;SDS011;10343;52.402;9.796;2023-04-16T09:53:26;9.23;;;1.38;;
20367;SDS011;10343;52.402;9.796;2023-04-16T09:55:55;15.82;;;1.90;;
20367;SDS011;10343;52.402;9.796;2023-04-16T09:58:24;17.25;;;3.47;;
20367;SDS011;10343;52.402;9.796;2023-04-16T10:00:54;11.30;;;2.15;;
20367;SDS011;10343;52.402;9.796;2023-04-16T10:03:30;12.10;;;2.38;;
20367;SDS011;10343;52.402;9.796;2023-04-16T10:06:05;14.00;;;1.70;;
20367;SDS011;10343;52.402;9.796;2023-04-16T10:08:35;13.88;;;1.98;;
20367;SDS011;10343;52.402;9.796;2023-04-16T10:11:03;18.17;;;3.00;;
20367;SDS011;10343;52.402;9.796;2023-04-16T10:13:34;15.07;;;2.83;;
20367;SDS011;10343;52.402;9.796;2023-04-16T10:16:03;9.68;;;2.25;;
20367;SDS011;10343;52.402;9.796;2023-04-16T10:18:34;13.88;;;2.10;;
20367;SDS011;10343;52.402;9.796;2023-04-16T10:21:07;11.32;;;2.53;;
20367;SDS011;10343;52.402;9.796;2023-04-16T10:23:37;9.00;;;1.33;;
20367;SDS011;10343;52.402;9.796;2023-04-16T10:26:06;12.60;;;2.03;;
20367;SDS011;10343;52.402;9.796;2023-04-16T10:28:34;18.73;;;3.75;;
20367;SDS011;10343;52.402;9.796;2023-04-16T10:31:04;12.38;;;2.42;;
20367;SDS011;10343;52.402;9.796;2023-04-16T10:33:35;10.63;;;2.38;;
20367;SDS011;10343;52.402;9.796;2023-04-16T10:36:07;15.23;;;3.28;;
20367;SDS011;10343;52.402;9.796;2023-04-16T10:38:37;12.80;;;3.47;;
20367;SDS011;10343;52.402;9.796;2023-04-16T10:41:09;17.85;;;3.30;;
20367;SDS011;10343;52.402;9.796;2023-04-16T10:43:38;13.00;;;3.03;;
20367;SDS011;10343;52.402;9.796;2023-04-16T10:46:17;16.30;;;3.28;;
20367;SDS011;10343;52.402;9.796;2023-04-16T10:48:48;15.93;;;3.45;;
20367;SDS011;10343;52.402;9.796;2023-04-16T10:51:24;11.98;;;2.17;;
20367;SDS011;10343;52.402;9.796;2023-04-16T10:53:55;16.67;;;3.15;;
20367;SDS011;10343;52.402;9.796;2023-04-16T10:56:28;16.80;;;3.05;;
20367;SDS011;10343;52.402;9.796;2023-04-16T10:59:03;16.27;;;3.78;;
20367;SDS011;10343;52.402;9.796;2023-04-16T11:01:34;16.38;;;2.72;;
20367;SDS011;10343;52.402;9.796;2023-04-16T11:07:06;19.77;;;3.92;;
20367;SDS011;10343;52.402;9.796;2023-04-16T11:12:32;23.42;;;4.53;;
20367;SDS011;10343;52.402;9.796;2023-04-16T11:15:06;14.80;;;2.50;;
20367;SDS011;10343;52.402;9.796;2023-04-16T11:17:36;13.63;;;2.35;;
20367;SDS011;10343;52.402;9.796;2023-04-16T11:20:07;14.15;;;3.50;;
20367;SDS011;10343;52.402;9.796;2023-04-16T11:22:47;13.18;;;2.60;;
20367;SDS011;10343;52.402;9.796;2023-04-16T11:25:18;18.48;;;3.28;;
20367;SDS011;10343;52.402;9.796;2023-04-16T11:27:46;18.45;;;3.80;;
20367;SDS011;10343;52.402;9.796;2023-04-16T11:30:14;18.80;;;4.47;;
20367;SDS011;10343;52.402;9.796;2023-04-16T11:32:43;16.67;;;3.83;;
20367;SDS011;10343;52.402;9.796;2023-04-16T11:35:14;18.27;;;4.05;;
20367;SDS011;10343;52.402;9.796;2023-04-16T11:37:43;13.90;;;3.42;;
20367;SDS011;10343;52.402;9.796;2023-04-16T11:40:12;12.18;;;2.63;;
20367;SDS011;10343;52.402;9.796;2023-04-16T11:42:41;12.57;;;3.60;;
20367;SDS011;10343;52.402;9.796;2023-04-16T11:45:10;18.17;;;3.63;;
20367;SDS011;10343;52.402;9.796;2023-04-16T11:47:44;15.20;;;3.35;;
20367;SDS011;10343;52.402;9.796;2023-04-16T11:50:18;16.70;;;4.00;;
20367;SDS011;10343;52.402;9.796;2023-04-16T11:52:47;13.50;;;3.25;;
20367;SDS011;10343;52.402;9.796;2023-04-16T11:55:17;18.13;;;3.45;;
20367;SDS011;10343;52.402;9.796;2023-04-16T11:57:45;17.58;;;3.55;;
20367;SDS011;10343;52.402;9.796;2023-04-16T12:00:14;17.25;;;4.47;;
20367;SDS011;10343;52.402;9.796;2023-04-16T12:02:43;13.90;;;2.50;;
20367;SDS011;10343;52.402;9.796;2023-04-16T12:05:29;21.13;;;3.88;;
20367;SDS011;10343;52.402;9.796;2023-04-16T12:08:00;13.13;;;4.13;;
20367;SDS011;10343;52.402;9.796;2023-04-16T12:10:29;15.93;;;3.33;;
20367;SDS011;10343;52.402;9.796;2023-04-16T12:13:10;14.85;;;2.40;;
20367;SDS011;10343;52.402;9.796;2023-04-16T12:15:42;13.43;;;2.63;;
20367;SDS011;10343;52.402;9.796;2023-04-16T12:18:18;12.73;;;2.63;;
20367;SDS011;10343;52.402;9.796;2023-04-16T12:21:03;13.63;;;1.55;;
20367;SDS011;10343;52.402;9.796;2023-04-16T12:23:32;17.65;;;2.25;;
20367;SDS011;10343;52.402;9.796;2023-04-16T12:26:05;12.27;;;2.67;;
20367;SDS011;10343;52.402;9.796;2023-04-16T12:28:40;12.32;;;1.88;;
20367;SDS011;10343;52.402;9.796;2023-04-16T12:31:12;18.00;;;3.25;;
20367;SDS011;10343;52.402;9.796;2023-04-16T12:33:40;12.63;;;2.47;;
20367;SDS011;10343;52.402;9.796;2023-04-16T12:36:20;13.25;;;3.20;;
20367;SDS011;10343;52.402;9.796;2023-04-16T12:38:51;14.10;;;2.97;;
20367;SDS011;10343;52.402;9.796;2023-04-16T12:41:25;10.93;;;2.15;;
20367;SDS011;10343;52.402;9.796;2023-04-16T12:44:09;14.82;;;3.05;;
20367;SDS011;10343;52.402;9.796;2023-04-16T12:46:57;10.88;;;2.50;;
20367;SDS011;10343;52.402;9.796;2023-04-16T12:49:25;11.85;;;2.08;;
20367;SDS011;10343;52.402;9.796;2023-04-16T12:51:54;19.05;;;2.88;;
20367;SDS011;10343;52.402;9.796;2023-04-16T12:54:22;12.43;;;2.40;;
20367;SDS011;10343;52.402;9.796;2023-04-16T12:56:54;12.38;;;3.42;;
20367;SDS011;10343;52.402;9.796;2023-04-16T12:59:22;12.50;;;2.08;;
20367;SDS011;10343;52.402;9.796;2023-04-16T13:01:50;14.68;;;1.88;;
20367;SDS011;10343;52.402;9.796;2023-04-16T13:04:18;13.52;;;3.28;;
20367;SDS011;10343;52.402;9.796;2023-04-16T13:06:50;11.48;;;1.88;;
20367;SDS011;10343;52.402;9.796;2023-04-16T13:09:19;11.70;;;1.83;;
20367;SDS011;10343;52.402;9.796;2023-04-16T13:11:47;16.38;;;2.28;;
20367;SDS011;10343;52.402;9.796;2023-04-16T13:14:15;7.72;;;1.13;;
20367;SDS011;10343;52.402;9.796;2023-04-16T13:16:43;9.27;;;1.58;;
20367;SDS011;10343;52.402;9.796;2023-04-16T13:19:11;11.90;;;2.47;;
20367;SDS011;10343;52.402;9.796;2023-04-16T13:21:41;10.77;;;1.05;;
20367;SDS011;10343;52.402;9.796;2023-04-16T13:24:09;11.50;;;0.93;;
20367;SDS011;10343;52.402;9.796;2023-04-16T13:26:38;9.07;;;1.58;;
20367;SDS011;10343;52.402;9.796;2023-04-16T13:29:07;10.13;;;1.65;;
20367;SDS011;10343;52.402;9.796;2023-04-16T13:31:36;8.20;;;0.55;;
20367;SDS011;10343;52.402;9.796;2023-04-16T13:34:05;6.95;;;0.55;;
20367;SDS011;10343;52.402;9.796;2023-04-16T13:36:33;12.98;;;3.10;;
20367;SDS011;10343;52.402;9.796;2023-04-16T13:39:01;6.18;;;0.35;;
20367;SDS011;10343;52.402;9.796;2023-04-16T13:41:30;7.82;;;1.23;;
20367;SDS011;10343;52.402;9.796;2023-04-16T13:44:00;6.13;;;0.38;;
20367;SDS011;10343;52.402;9.796;2023-04-16T13:46:39;9.57;;;0.68;;
20367;SDS011;10343;52.402;9.796;2023-04-16T13:49:13;7.75;;;0.65;;
20367;SDS011;10343;52.402;9.796;2023-04-16T13:51:41;6.07;;;0.32;;
20367;SDS011;10343;52.402;9.796;2023-04-16T13:54:10;7.25;;;0.45;;
20367;SDS011;10343;52.402;9.796;2023-04-16T13:56:38;4.60;;;0.60;;
20367;SDS011;10343;52.402;9.796;2023-04-16T13:59:09;6.07;;;0.40;;
20367;SDS011;10343;52.402;9.796;2023-04-16T14:01:37;7.55;;;0.28;;
20367;SDS011;10343;52.402;9.796;2023-04-16T14:04:06;4.40;;;0.35;;
20367;SDS011;10343;52.402;9.796;2023-04-16T14:06:37;7.78;;;0.35;;
20367;SDS011;10343;52.402;9.796;2023-04-16T14:09:08;4.28;;;0.20;;
20367;SDS011;10343;52.402;9.796;2023-04-16T14:12:03;9.38;;;0.30;;
20367;SDS011;10343;52.402;9.796;2023-04-16T14:14:33;9.55;;;0.43;;
20367;SDS011;10343;52.402;9.796;2023-04-16T14:17:01;4.93;;;0.20;;
20367;SDS011;10343;52.402;9.796;2023-04-16T14:19:29;7.82;;;0.20;;
20367;SDS011;10343;52.402;9.796;2023-04-16T14:21:57;5.05;;;0.35;;
20367;SDS011;10343;52.402;9.796;2023-04-16T14:24:25;6.10;;;0.50;;
20367;SDS011;10343;52.402;9.796;2023-04-16T14:26:53;5.20;;;0.28;;
20367;SDS011;10343;52.402;9.796;2023-04-16T14:29:21;5.43;;;0.30;;
20367;SDS011;10343;52.402;9.796;2023-04-16T14:31:53;10.98;;;0.73;;
20367;SDS011;10343;52.402;9.796;2023-04-16T14:34:22;5.68;;;0.10;;
20367;SDS011;10343;52.402;9.796;2023-04-16T14:36:50;6.95;;;0.45;;
20367;SDS011;10343;52.402;9.796;2023-04-16T14:39:21;4.07;;;0.30;;
20367;SDS011;10343;52.402;9.796;2023-04-16T14:41:49;10.85;;;0.40;;
20367;SDS011;10343;52.402;9.796;2023-04-16T14:44:20;5.05;;;0.28;;
20367;SDS011;10343;52.402;9.796;2023-04-16T14:46:49;8.52;;;0.35;;
20367;SDS011;10343;52.402;9.796;2023-04-16T14:49:18;4.05;;;0.25;;
20367;SDS011;10343;52.402;9.796;2023-04-16T14:51:46;3.03;;;0.10;;
20367;SDS011;10343;52.402;9.796;2023-04-16T14:54:14;5.05;;;0.55;;
20367;SDS011;10343;52.402;9.796;2023-04-16T14:56:53;4.15;;;0.20;;
20367;SDS011;10343;52.402;9.796;2023-04-16T14:59:32;9.63;;;0.40;;